Time;durP1;ratioP1;P1;durP2;ratioP2;P2;SDS_P1;SDS_P2;PMS_P1;PMS_P2;Temp;Humidity;BMP_temperature;BMP_pressure;BME280_temperature;BME280_humidity;BME280_pressure;Samples;Min_cycle;Max_cycle;Signal;HPM_P1;HPM_P2
2023/05/20 00:02:11;;;;;;;6.63;1.92;;;12.10;99.90;;;;;;4943543;29;20027;-92
2023/05/20 00:04:37;;;;;;;10.68;2.00;;;12.10;99.90;;;;;;4935177;29;20087;-93
2023/05/20 00:07:03;;;;;;;4.32;1.80;;;12.00;99.90;;;;;;4935889;29;20024;-93
2023/05/20 00:09:28;;;;;;;12.93;1.75;;;12.00;99.90;;;;;;4937894;29;20023;-93
2023/05/20 00:11:54;;;;;;;6.72;1.67;;;11.90;99.90;;;;;;4937905;29;20098;-93
2023/05/20 00:14:20;;;;;;;9.02;2.25;;;11.90;99.90;;;;;;4932521;29;20034;-93
2023/05/20 00:16:45;;;;;;;10.23;2.25;;;11.90;99.90;;;;;;4936042;29;20431;-93
2023/05/20 00:19:11;;;;;;;9.60;2.05;;;11.90;99.90;;;;;;4937616;29;20163;-93
2023/05/20 00:21:36;;;;;;;6.68;1.75;;;11.90;99.90;;;;;;4951418;29;20035;-93
2023/05/20 00:24:02;;;;;;;7.88;1.83;;;11.80;99.90;;;;;;4953556;29;20038;-92
2023/05/20 00:26:28;;;;;;;6.55;1.80;;;11.80;99.90;;;;;;4943888;29;20079;-93
2023/05/20 00:28:53;;;;;;;9.00;2.00;;;11.70;99.90;;;;;;4940485;29;20035;-92
2023/05/20 00:31:19;;;;;;;7.30;2.08;;;11.70;99.90;;;;;;4942374;29;21597;-93
2023/05/20 00:33:44;;;;;;;8.38;1.60;;;11.70;99.90;;;;;;4937318;29;20483;-92
2023/05/20 00:36:10;;;;;;;5.68;1.35;;;11.60;99.90;;;;;;4937479;29;20015;-92
2023/05/20 00:38:35;;;;;;;4.35;1.60;;;11.60;99.90;;;;;;4933526;29;20472;-93
2023/05/20 00:41:01;;;;;;;6.88;1.52;;;11.50;99.90;;;;;;4934053;29;20087;-93
2023/05/20 00:43:27;;;;;;;7.28;1.95;;;11.50;99.90;;;;;;4918636;29;20055;-92
2023/05/20 00:45:53;;;;;;;9.25;1.92;;;11.50;99.90;;;;;;4918991;29;20055;-94
2023/05/20 00:48:20;;;;;;;5.88;1.70;;;11.50;99.90;;;;;;4944613;29;20394;-93
2023/05/20 00:50:47;;;;;;;10.05;1.98;;;11.50;99.90;;;;;;4937798;29;20106;-92
2023/05/20 00:53:14;;;;;;;7.85;2.55;;;11.50;99.90;;;;;;4933680;29;20039;-93
2023/05/20 00:55:40;;;;;;;6.03;1.75;;;11.50;99.90;;;;;;4934415;29;20105;-91
2023/05/20 00:58:05;;;;;;;6.20;1.98;;;11.50;99.90;;;;;;4934740;29;20132;-92
2023/05/20 01:00:31;;;;;;;4.90;1.75;;;11.50;99.90;;;;;;4937189;29;20023;-92
2023/05/20 01:02:57;;;;;;;6.30;1.90;;;11.50;99.90;;;;;;4937053;29;20499;-93
2023/05/20 01:05:22;;;;;;;6.90;1.90;;;11.40;99.90;;;;;;4932933;29;20039;-92
2023/05/20 01:07:48;;;;;;;11.13;1.73;;;11.40;99.90;;;;;;4941542;29;20030;-92
2023/05/20 01:10:14;;;;;;;13.88;3.28;;;11.40;99.90;;;;;;4942095;29;20031;-92
2023/05/20 01:12:47;;;;;;;5.82;1.73;;;11.40;99.90;;;;;;4950568;28;20043;-92
2023/05/20 01:15:14;;;;;;;8.52;2.15;;;11.40;99.90;;;;;;4957471;29;20024;-93
2023/05/20 01:17:45;;;;;;;6.32;2.33;;;11.40;99.90;;;;;;4949790;29;20071;-92
2023/05/20 01:20:13;;;;;;;5.32;1.70;;;11.40;99.90;;;;;;4940788;29;20125;-92
2023/05/20 01:22:49;;;;;;;5.55;1.75;;;11.50;99.90;;;;;;4941195;29;20122;-93
2023/05/20 01:25:14;;;;;;;8.55;2.05;;;11.40;99.90;;;;;;4941532;29;20598;-92
2023/05/20 01:27:40;;;;;;;10.27;2.13;;;11.40;99.90;;;;;;4940676;28;20035;-92
2023/05/20 01:30:06;;;;;;;9.15;1.83;;;11.40;99.90;;;;;;4940436;28;20141;-92
2023/05/20 01:32:38;;;;;;;9.15;2.10;;;11.40;99.90;;;;;;4940998;29;20491;-92
2023/05/20 01:35:04;;;;;;;7.97;2.00;;;11.40;99.90;;;;;;4941068;29;20023;-92
2023/05/20 01:37:31;;;;;;;7.15;2.08;;;11.30;99.90;;;;;;4940971;29;20035;-92
2023/05/20 01:39:57;;;;;;;8.02;2.30;;;11.40;99.90;;;;;;4941011;29;20028;-92
2023/05/20 01:42:25;;;;;;;8.90;2.15;;;11.40;99.90;;;;;;4942429;28;20042;-92
2023/05/20 01:44:51;;;;;;;7.75;2.15;;;11.50;99.90;;;;;;4925422;29;20027;-92
2023/05/20 01:47:17;;;;;;;6.45;2.25;;;11.50;99.90;;;;;;4934721;29;20086;-93
2023/05/20 01:49:44;;;;;;;6.78;1.52;;;11.60;99.90;;;;;;4941031;29;20070;-92
2023/05/20 01:52:11;;;;;;;5.95;1.70;;;11.60;99.90;;;;;;4940958;29;20039;-92
2023/05/20 01:54:36;;;;;;;10.23;1.77;;;11.60;99.90;;;;;;4922186;29;20024;-93
2023/05/20 01:57:02;;;;;;;7.53;2.05;;;11.60;99.90;;;;;;4931345;29;20032;-92
2023/05/20 01:59:27;;;;;;;5.97;2.38;;;11.70;99.90;;;;;;4939970;29;20034;-93
2023/05/20 02:01:53;;;;;;;8.65;2.17;;;11.70;99.90;;;;;;4938650;29;20032;-92
2023/05/20 02:04:20;;;;;;;5.93;2.05;;;11.70;99.90;;;;;;4925871;29;20026;-93
2023/05/20 02:06:45;;;;;;;7.68;2.25;;;11.60;99.90;;;;;;4940498;29;20069;-92
2023/05/20 02:09:11;;;;;;;5.85;1.60;;;11.60;99.90;;;;;;4939327;29;20456;-92
2023/05/20 02:11:36;;;;;;;8.00;2.08;;;11.60;99.90;;;;;;4939004;29;20043;-92
2023/05/20 02:14:02;;;;;;;8.50;2.92;;;11.60;99.90;;;;;;4956136;28;20102;-91
2023/05/20 02:16:27;;;;;;;7.63;2.53;;;11.60;99.90;;;;;;4954768;28;20139;-92
2023/05/20 02:18:53;;;;;;;5.88;1.55;;;11.70;99.90;;;;;;4956002;29;20027;-92
2023/05/20 02:21:20;;;;;;;9.82;2.13;;;11.70;99.90;;;;;;4942346;29;20051;-92
2023/05/20 02:23:45;;;;;;;11.23;2.55;;;11.60;99.90;;;;;;4946822;29;20088;-92
2023/05/20 02:26:11;;;;;;;7.25;2.35;;;11.60;99.90;;;;;;4940028;29;20023;-92
2023/05/20 02:28:43;;;;;;;9.85;2.08;;;11.60;99.90;;;;;;4938589;29;20034;-92
2023/05/20 02:31:09;;;;;;;6.10;2.13;;;11.70;99.90;;;;;;4944773;29;20130;-92
2023/05/20 02:33:34;;;;;;;7.10;2.08;;;11.70;99.90;;;;;;4952782;29;20150;-92
2023/05/20 02:36:00;;;;;;;8.20;3.42;;;11.70;99.90;;;;;;4939711;29;20019;-92
2023/05/20 02:38:25;;;;;;;6.78;2.72;;;11.70;99.90;;;;;;4939734;29;20399;-92
2023/05/20 02:40:51;;;;;;;6.63;2.40;;;11.70;99.90;;;;;;4939386;29;20027;-92
2023/05/20 02:43:16;;;;;;;8.43;2.17;;;11.70;99.90;;;;;;4939014;29;20059;-92
2023/05/20 02:45:42;;;;;;;7.57;2.30;;;11.70;99.90;;;;;;4939675;29;20046;-93
2023/05/20 02:48:07;;;;;;;6.68;2.38;;;11.60;99.90;;;;;;4948498;29;20419;-92
2023/05/20 02:50:33;;;;;;;6.32;2.67;;;11.60;99.90;;;;;;4939644;29;20028;-92
2023/05/20 02:52:59;;;;;;;6.90;2.15;;;11.50;99.90;;;;;;4940391;29;20130;-92
2023/05/20 02:55:24;;;;;;;9.55;2.28;;;11.50;99.90;;;;;;4938822;29;20031;-92
2023/05/20 02:57:50;;;;;;;8.05;2.65;;;11.50;99.90;;;;;;4938913;29;20494;-91
2023/05/20 03:00:15;;;;;;;9.43;2.88;;;11.50;99.90;;;;;;4935538;29;20408;-93
2023/05/20 03:02:41;;;;;;;6.65;2.90;;;11.40;99.90;;;;;;4936238;29;20027;-93
2023/05/20 03:05:07;;;;;;;5.88;2.78;;;11.40;99.90;;;;;;4939169;29;20030;-92
2023/05/20 03:07:35;;;;;;;6.32;2.33;;;11.30;99.90;;;;;;4940392;29;20038;-92
2023/05/20 03:10:01;;;;;;;6.63;2.80;;;11.30;99.90;;;;;;4935840;29;20066;-93
2023/05/20 03:12:27;;;;;;;5.80;2.38;;;11.20;99.90;;;;;;4947097;29;20054;-93
2023/05/20 03:14:54;;;;;;;9.75;2.72;;;11.20;99.90;;;;;;4938962;29;20027;-92
2023/05/20 03:17:20;;;;;;;7.82;2.70;;;11.20;99.90;;;;;;4938707;29;20106;-94
2023/05/20 03:19:46;;;;;;;13.82;3.75;;;11.20;99.90;;;;;;4938876;29;20063;-93
2023/05/20 03:22:12;;;;;;;7.85;2.72;;;11.10;99.90;;;;;;4939308;29;20083;-92
2023/05/20 03:24:37;;;;;;;6.97;3.28;;;11.10;99.90;;;;;;4938168;29;20475;-92
2023/05/20 03:27:03;;;;;;;6.70;2.83;;;11.10;99.90;;;;;;4937683;29;20031;-92
2023/05/20 03:29:30;;;;;;;12.25;3.40;;;11.00;99.90;;;;;;4938415;29;20031;-91
2023/05/20 03:31:55;;;;;;;6.45;2.97;;;11.00;99.90;;;;;;4938852;29;20047;-92
2023/05/20 03:34:21;;;;;;;7.15;2.78;;;11.00;99.90;;;;;;4938237;29;20063;-92
2023/05/20 03:36:46;;;;;;;6.78;2.88;;;11.00;99.90;;;;;;4942403;29;20053;-91
2023/05/20 03:39:12;;;;;;;6.57;3.15;;;10.90;99.90;;;;;;4940431;29;20105;-92
2023/05/20 03:41:37;;;;;;;6.90;2.95;;;10.90;99.90;;;;;;4938316;29;20027;-92
2023/05/20 03:44:03;;;;;;;7.03;2.53;;;10.80;99.90;;;;;;4934076;28;20032;-91
2023/05/20 03:46:31;;;;;;;10.00;2.95;;;10.80;99.90;;;;;;4933043;29;20058;-91
2023/05/20 03:48:56;;;;;;;8.48;2.97;;;10.80;99.90;;;;;;4938173;29;20070;-91
2023/05/20 03:51:22;;;;;;;7.18;3.10;;;10.80;99.90;;;;;;4936265;29;20059;-92
2023/05/20 03:53:47;;;;;;;7.15;3.05;;;10.80;99.90;;;;;;4938640;29;20035;-92
2023/05/20 03:56:13;;;;;;;9.70;3.30;;;10.80;99.90;;;;;;4948850;29;20050;-92
2023/05/20 03:58:38;;;;;;;6.18;2.45;;;10.70;99.90;;;;;;4943209;29;20555;-92
2023/05/20 04:01:04;;;;;;;6.47;3.13;;;10.70;99.90;;;;;;4938462;29;20494;-92
2023/05/20 04:03:30;;;;;;;7.30;3.13;;;10.70;99.90;;;;;;4947200;29;20781;-92
2023/05/20 04:05:55;;;;;;;6.93;2.70;;;10.70;99.90;;;;;;4944084;28;20019;-93
2023/05/20 04:08:24;;;;;;;8.40;2.72;;;10.70;99.90;;;;;;4938727;29;20035;-92
2023/05/20 04:10:50;;;;;;;10.02;2.42;;;10.70;99.90;;;;;;4942251;29;20019;-92
2023/05/20 04:13:16;;;;;;;6.68;2.88;;;10.70;99.90;;;;;;4945040;29;20027;-92
2023/05/20 04:15:41;;;;;;;5.97;3.28;;;10.70;99.90;;;;;;4936341;29;20399;-92
2023/05/20 04:18:07;;;;;;;6.85;2.90;;;10.60;99.90;;;;;;4938219;29;20038;-92
2023/05/20 04:20:33;;;;;;;7.60;3.30;;;10.60;99.90;;;;;;4937734;29;20496;-92
2023/05/20 04:22:58;;;;;;;10.50;4.38;;;10.70;99.90;;;;;;4938022;29;20030;-92
2023/05/20 04:25:24;;;;;;;10.35;2.80;;;10.70;99.90;;;;;;4937624;29;20054;-92
2023/05/20 04:27:52;;;;;;;6.35;2.70;;;10.70;99.90;;;;;;4925413;29;20023;-92
2023/05/20 04:30:20;;;;;;;5.55;2.92;;;10.70;99.90;;;;;;4938841;29;20582;-92
2023/05/20 04:32:47;;;;;;;7.38;2.17;;;10.70;99.90;;;;;;4938602;29;20407;-92
2023/05/20 04:35:13;;;;;;;9.10;2.97;;;10.80;99.90;;;;;;4938104;28;20027;-91
2023/05/20 04:37:41;;;;;;;6.22;2.58;;;10.80;99.90;;;;;;4937833;29;20058;-92
2023/05/20 04:40:08;;;;;;;11.45;3.13;;;10.90;99.90;;;;;;4937126;29;20023;-92
2023/05/20 04:42:33;;;;;;;7.07;2.28;;;10.90;99.90;;;;;;4938187;29;20483;-92
2023/05/20 04:45:00;;;;;;;5.85;2.40;;;11.00;99.90;;;;;;4928630;29;20039;-91
2023/05/20 04:47:28;;;;;;;6.57;2.80;;;11.00;99.90;;;;;;4925044;29;20043;-91
2023/05/20 04:49:56;;;;;;;6.25;2.28;;;11.10;99.90;;;;;;4937797;29;20023;-91
2023/05/20 04:52:22;;;;;;;4.05;2.60;;;11.10;99.90;;;;;;4937284;29;20035;-92
2023/05/20 04:54:49;;;;;;;8.75;3.08;;;11.20;99.90;;;;;;4937597;29;20127;-91
2023/05/20 04:57:16;;;;;;;6.40;2.40;;;11.20;99.90;;;;;;4934279;29;20039;-92
2023/05/20 04:59:42;;;;;;;9.57;2.67;;;11.30;99.90;;;;;;4937465;29;20498;-91
2023/05/20 05:02:07;;;;;;;7.35;2.38;;;11.40;99.90;;;;;;4935825;29;20118;-92
2023/05/20 05:04:33;;;;;;;10.20;2.97;;;11.40;99.90;;;;;;4936775;29;20118;-92
2023/05/20 05:06:58;;;;;;;6.53;2.78;;;11.50;99.90;;;;;;4941184;29;20115;-91
2023/05/20 05:09:24;;;;;;;4.57;2.67;;;11.60;99.90;;;;;;4932807;29;20040;-92
2023/05/20 05:11:49;;;;;;;7.90;1.98;;;11.60;99.90;;;;;;4926755;29;20130;-91
2023/05/20 05:14:15;;;;;;;4.97;2.00;;;11.80;99.90;;;;;;4937810;29;20027;-92
2023/05/20 05:16:41;;;;;;;7.72;2.30;;;12.10;99.90;;;;;;4936872;29;20035;-92
2023/05/20 05:19:07;;;;;;;5.55;2.33;;;12.40;99.90;;;;;;4949806;29;20534;-92
2023/05/20 05:21:33;;;;;;;7.10;1.85;;;12.70;99.90;;;;;;4932369;28;20031;-93
2023/05/20 05:23:58;;;;;;;6.53;1.95;;;13.00;99.90;;;;;;4932599;29;20460;-92
2023/05/20 05:26:25;;;;;;;5.63;1.50;;;13.30;99.90;;;;;;4928194;29;20028;-92
2023/05/20 05:28:55;;;;;;;6.55;1.60;;;13.50;99.90;;;;;;4939329;29;20038;-93
2023/05/20 05:31:28;;;;;;;3.85;1.50;;;13.80;99.90;;;;;;4931025;28;20051;-93
2023/05/20 05:33:54;;;;;;;6.63;1.90;;;13.90;99.90;;;;;;4933154;29;20427;-91
2023/05/20 05:36:20;;;;;;;3.65;1.35;;;14.10;99.90;;;;;;4938024;29;20031;-92
2023/05/20 05:38:45;;;;;;;5.25;1.35;;;14.20;99.90;;;;;;4927011;29;20134;-92
2023/05/20 05:41:11;;;;;;;6.05;1.92;;;14.30;99.90;;;;;;4930875;29;20098;-92
2023/05/20 05:43:36;;;;;;;3.15;1.45;;;14.20;99.90;;;;;;4959023;28;20035;-92
2023/05/20 05:46:02;;;;;;;5.57;1.90;;;14.20;99.90;;;;;;4936398;29;20090;-91
2023/05/20 05:48:27;;;;;;;4.03;1.50;;;14.20;99.90;;;;;;4947726;29;20035;-92
2023/05/20 05:50:53;;;;;;;6.57;1.80;;;14.20;99.90;;;;;;4939349;29;20035;-91
2023/05/20 05:53:18;;;;;;;6.00;1.77;;;14.20;99.90;;;;;;4940051;29;20097;-91
2023/05/20 05:55:47;;;;;;;3.60;1.67;;;14.30;99.90;;;;;;4939877;29;20033;-92
2023/05/20 05:58:51;;;;;;;;;;;;;;;;;;;;;
2023/05/20 06:01:17;;;;;;;4.70;1.23;;;14.50;99.90;;;;;;4955852;29;20484;-93
2023/05/20 06:03:43;;;;;;;4.35;1.75;;;14.50;99.90;;;;;;4944136;29;20114;-91
2023/05/20 06:06:08;;;;;;;4.72;1.55;;;14.60;99.90;;;;;;4940213;29;20061;-91
2023/05/20 06:08:34;;;;;;;3.97;1.50;;;14.60;99.90;;;;;;4940438;29;20023;-92
2023/05/20 06:10:59;;;;;;;3.75;1.35;;;14.60;99.90;;;;;;4945576;29;20031;-92
2023/05/20 06:13:25;;;;;;;4.38;1.48;;;14.70;99.90;;;;;;4948209;29;20488;-91
2023/05/20 06:15:50;;;;;;;5.47;2.22;;;14.70;99.90;;;;;;4937474;29;20043;-93
2023/05/20 06:18:16;;;;;;;6.40;1.35;;;14.80;99.90;;;;;;4931584;29;20063;-92
2023/05/20 06:20:42;;;;;;;4.07;1.40;;;14.90;99.90;;;;;;4942391;29;20126;-92
2023/05/20 06:23:07;;;;;;;6.63;1.20;;;14.90;99.90;;;;;;4940126;29;20027;-93
2023/05/20 06:25:33;;;;;;;5.20;1.77;;;14.90;99.90;;;;;;4932786;29;20594;-92
2023/05/20 06:27:58;;;;;;;6.82;1.70;;;15.00;99.90;;;;;;4941283;29;20055;-92
2023/05/20 06:30:24;;;;;;;5.47;1.98;;;15.00;99.90;;;;;;4939670;28;20533;-91
2023/05/20 06:32:49;;;;;;;5.22;1.25;;;15.10;99.90;;;;;;4942691;29;20516;-92
2023/05/20 06:35:15;;;;;;;13.88;1.50;;;15.10;99.90;;;;;;4937766;29;20019;-91
2023/05/20 06:37:40;;;;;;;3.05;1.38;;;15.10;99.90;;;;;;4942116;29;20554;-91
2023/05/20 06:40:06;;;;;;;4.05;1.45;;;15.20;99.90;;;;;;4938748;29;20028;-91
2023/05/20 06:42:42;;;;;;;6.03;1.83;;;15.30;99.90;;;;;;4928092;28;20031;-93
2023/05/20 06:45:09;;;;;;;3.92;1.20;;;15.30;99.90;;;;;;4940958;29;20037;-94
2023/05/20 06:47:36;;;;;;;5.97;1.33;;;15.30;99.90;;;;;;4957751;29;20118;-96
2023/05/20 06:50:27;;;;;;;4.25;1.88;;;15.30;99.90;;;;;;4965712;28;20079;-96
2023/05/20 06:52:52;;;;;;;5.82;1.65;;;15.40;99.90;;;;;;4945819;29;20043;-92
2023/05/20 06:55:18;;;;;;;2.97;1.30;;;15.40;99.90;;;;;;4939499;29;20037;-94
2023/05/20 06:57:44;;;;;;;2.85;1.10;;;15.50;99.90;;;;;;4938032;29;20091;-93
2023/05/20 07:00:10;;;;;;;4.18;1.20;;;15.50;99.90;;;;;;4941182;29;20121;-93
2023/05/20 07:02:35;;;;;;;4.13;1.15;;;15.50;99.90;;;;;;4939464;29;20031;-93
2023/05/20 07:05:01;;;;;;;6.32;1.30;;;15.60;99.90;;;;;;4942801;28;20501;-91
2023/05/20 07:07:26;;;;;;;3.15;1.08;;;15.60;99.90;;;;;;4942557;29;20440;-91
2023/05/20 07:09:53;;;;;;;2.55;1.13;;;15.70;99.90;;;;;;4935950;29;20019;-91
2023/05/20 07:12:19;;;;;;;6.30;1.52;;;15.70;99.90;;;;;;4938874;29;20495;-92
2023/05/20 07:14:44;;;;;;;4.43;1.60;;;15.80;99.90;;;;;;4938487;29;20025;-91
2023/05/20 07:17:10;;;;;;;3.65;1.50;;;15.80;99.90;;;;;;4940368;29;20379;-91
2023/05/20 07:19:36;;;;;;;2.85;1.10;;;15.90;99.90;;;;;;4941206;29;20435;-91
2023/05/20 07:22:01;;;;;;;5.35;1.27;;;16.00;99.90;;;;;;4940964;29;20038;-89
2023/05/20 07:24:27;;;;;;;3.70;1.17;;;16.10;99.90;;;;;;4938785;29;20031;-90
2023/05/20 07:30:14;;;;;;;2.50;1.00;;;16.20;99.90;;;;;;4956512;28;20102;-93
2023/05/20 07:32:41;;;;;;;7.30;1.20;;;16.30;99.90;;;;;;4940899;29;20496;-95
2023/05/20 07:35:06;;;;;;;2.75;1.02;;;16.50;99.90;;;;;;4937723;29;20026;-92
2023/05/20 07:37:32;;;;;;;4.28;1.30;;;16.60;99.90;;;;;;4945888;29;20106;-90
2023/05/20 07:39:57;;;;;;;5.32;1.30;;;16.70;99.90;;;;;;4940430;29;20023;-91
2023/05/20 07:42:23;;;;;;;2.65;1.05;;;16.70;99.90;;;;;;4937131;29;20042;-91
2023/05/20 07:44:48;;;;;;;10.00;1.50;;;16.70;99.90;;;;;;4938371;29;20024;-93
2023/05/20 07:47:14;;;;;;;13.13;3.33;;;16.80;99.90;;;;;;4938466;29;20031;-91
2023/05/20 07:49:40;;;;;;;3.08;1.08;;;16.90;99.90;;;;;;4930270;29;20031;-92
2023/05/20 07:52:06;;;;;;;2.05;1.08;;;17.00;99.90;;;;;;4931172;29;20166;-90
2023/05/20 07:54:33;;;;;;;2.80;1.23;;;17.00;99.90;;;;;;4940988;29;20113;-90
2023/05/20 07:56:59;;;;;;;3.08;1.30;;;17.10;99.90;;;;;;4939001;29;20027;-90
2023/05/20 07:59:25;;;;;;;3.20;1.40;;;17.30;99.90;;;;;;4935259;29;20040;-91
2023/05/20 08:01:53;;;;;;;4.68;1.40;;;17.30;99.90;;;;;;4939354;29;20034;-89
2023/05/20 08:04:23;;;;;;;3.92;1.42;;;17.40;99.60;;;;;;4935742;29;20031;-90
2023/05/20 08:06:49;;;;;;;5.72;1.70;;;17.40;99.10;;;;;;4935922;29;20023;-91
2023/05/20 08:09:15;;;;;;;3.65;1.60;;;17.30;99.20;;;;;;4940580;29;21287;-90
2023/05/20 08:11:40;;;;;;;4.18;1.55;;;17.40;98.20;;;;;;4938004;28;20102;-89
2023/05/20 08:14:06;;;;;;;6.25;1.27;;;17.40;98.10;;;;;;4937487;29;20067;-90
2023/05/20 08:16:31;;;;;;;5.07;1.30;;;17.40;97.70;;;;;;4936168;29;20070;-91
2023/05/20 08:18:57;;;;;;;5.28;1.15;;;17.50;98.00;;;;;;4931085;29;20041;-91
2023/05/20 08:21:22;;;;;;;5.65;1.10;;;17.60;97.80;;;;;;4937229;29;20028;-90
2023/05/20 08:23:48;;;;;;;1.98;0.82;;;17.70;97.20;;;;;;4938020;29;20463;-91
2023/05/20 08:26:14;;;;;;;2.38;0.77;;;17.70;96.10;;;;;;4934614;29;20093;-90
2023/05/20 08:28:40;;;;;;;4.28;1.10;;;17.80;95.70;;;;;;4951288;29;20134;-91
2023/05/20 08:31:05;;;;;;;2.60;0.80;;;17.80;95.60;;;;;;4934148;29;20507;-91
2023/05/20 08:33:31;;;;;;;4.95;1.08;;;17.90;94.90;;;;;;4936265;29;20487;-91
2023/05/20 08:35:56;;;;;;;4.38;1.20;;;17.80;94.80;;;;;;4932432;29;20042;-91
2023/05/20 08:38:22;;;;;;;3.45;1.10;;;17.90;94.60;;;;;;4935687;29;20487;-91
2023/05/20 08:40:54;;;;;;;3.25;1.15;;;17.90;94.80;;;;;;4935448;29;20038;-91
2023/05/20 08:43:20;;;;;;;5.72;1.20;;;17.90;94.50;;;;;;4930456;29;20110;-91
2023/05/20 08:45:45;;;;;;;6.60;1.45;;;18.00;94.60;;;;;;4936449;29;20506;-91
2023/05/20 08:48:11;;;;;;;2.83;1.08;;;18.00;94.10;;;;;;4928595;29;20035;-91
2023/05/20 08:50:38;;;;;;;4.28;1.20;;;18.10;93.60;;;;;;4927320;29;20476;-90
2023/05/20 08:53:03;;;;;;;8.43;1.52;;;18.20;93.00;;;;;;4932218;29;20085;-89
2023/05/20 08:55:41;;;;;;;3.67;1.35;;;18.10;93.20;;;;;;4937460;29;20380;-89
2023/05/20 08:58:08;;;;;;;3.60;1.20;;;18.20;93.40;;;;;;4946948;28;20063;-89
2023/05/20 09:00:33;;;;;;;3.03;1.10;;;18.20;91.90;;;;;;4934689;29;20027;-89
2023/05/20 09:02:59;;;;;;;2.85;1.17;;;18.30;92.00;;;;;;4937321;29;20057;-90
2023/05/20 09:05:26;;;;;;;3.97;1.35;;;18.30;91.80;;;;;;4934138;29;20040;-91
2023/05/20 09:07:51;;;;;;;5.20;1.13;;;18.40;91.20;;;;;;4936379;29;20030;-90
2023/05/20 09:10:18;;;;;;;1.95;0.90;;;18.40;90.60;;;;;;4934872;29;20035;-90
2023/05/20 09:12:44;;;;;;;2.53;0.98;;;18.40;90.50;;;;;;4935692;29;20044;-90
2023/05/20 09:15:10;;;;;;;4.97;1.33;;;18.40;90.00;;;;;;4953770;29;20023;-90
2023/05/20 09:17:37;;;;;;;2.70;0.60;;;18.40;89.50;;;;;;4921152;29;20143;-89
2023/05/20 09:20:12;;;;;;;5.78;1.23;;;18.40;90.20;;;;;;4943935;29;20030;-89
2023/05/20 09:22:38;;;;;;;6.22;1.15;;;18.50;89.30;;;;;;4949783;29;20354;-90
2023/05/20 09:25:05;;;;;;;3.50;0.82;;;18.50;87.50;;;;;;4930400;29;20067;-90
2023/05/20 09:27:31;;;;;;;5.00;1.02;;;18.40;87.60;;;;;;4937718;29;20122;-88
2023/05/20 09:29:57;;;;;;;3.47;0.70;;;18.40;88.20;;;;;;4939660;28;20126;-89
2023/05/20 09:32:27;;;;;;;3.15;0.95;;;18.40;88.20;;;;;;4940331;29;20122;-88
2023/05/20 09:34:52;;;;;;;3.92;0.88;;;18.50;89.70;;;;;;4940886;29;20045;-89
2023/05/20 09:37:20;;;;;;;3.35;1.15;;;18.70;89.30;;;;;;4944519;29;20543;-88
2023/05/20 09:40:02;;;;;;;3.30;1.10;;;18.60;87.70;;;;;;4956411;29;20030;-89
2023/05/20 09:42:39;;;;;;;2.22;0.85;;;18.50;87.20;;;;;;4937852;29;20045;-89
2023/05/20 09:45:08;;;;;;;2.20;0.60;;;18.40;87.70;;;;;;4947470;29;20118;-88
2023/05/20 09:47:37;;;;;;;2.03;0.80;;;18.60;86.90;;;;;;4951366;29;20508;-88
2023/05/20 09:50:06;;;;;;;4.55;0.60;;;18.70;86.70;;;;;;4955371;28;20027;-88
2023/05/20 09:52:33;;;;;;;3.10;0.88;;;18.90;85.20;;;;;;4934989;29;20035;-88
2023/05/20 09:55:04;;;;;;;3.60;0.90;;;18.90;85.30;;;;;;4938549;29;20098;-88
2023/05/20 09:57:33;;;;;;;2.13;0.70;;;19.00;85.30;;;;;;4942748;29;20114;-88
2023/05/20 10:00:00;;;;;;;3.75;0.80;;;19.10;83.50;;;;;;4935996;29;20163;-89
2023/05/20 10:02:26;;;;;;;1.75;0.75;;;19.00;81.90;;;;;;4948947;28;20471;-89
2023/05/20 10:04:54;;;;;;;1.92;0.80;;;18.90;82.60;;;;;;4942274;29;20121;-89
2023/05/20 10:07:45;;;;;;;1.58;0.70;;;19.00;83.70;;;;;;4940440;29;20082;-89
2023/05/20 10:10:44;;;;;;;3.40;0.80;;;19.10;81.70;;;;;;4939778;29;20035;-89
2023/05/20 10:13:39;;;;;;;1.85;0.60;;;19.10;81.70;;;;;;4940496;28;20078;-89
2023/05/20 10:16:19;;;;;;;2.33;0.90;;;19.00;81.00;;;;;;4935482;29;20032;-88
2023/05/20 10:19:00;;;;;;;1.98;0.70;;;19.00;80.80;;;;;;4940322;29;20023;-89
2023/05/20 10:21:25;;;;;;;2.55;0.60;;;19.00;81.80;;;;;;4935925;29;20110;-88
2023/05/20 10:23:51;;;;;;;2.10;0.70;;;19.00;82.40;;;;;;4949828;29;20023;-88
2023/05/20 10:26:17;;;;;;;2.30;0.60;;;19.00;82.10;;;;;;4939422;29;20039;-88
2023/05/20 10:28:44;;;;;;;3.88;0.75;;;19.10;82.20;;;;;;4955575;29;20031;-88
2023/05/20 10:31:22;;;;;;;3.20;0.80;;;19.20;82.70;;;;;;4936043;29;20043;-88
2023/05/20 10:33:51;;;;;;;5.80;0.88;;;19.30;81.70;;;;;;4921057;29;20127;-95
2023/05/20 10:36:25;;;;;;;3.92;1.02;;;19.30;81.00;;;;;;4938006;28;20471;-88
2023/05/20 10:38:55;;;;;;;2.50;0.80;;;19.30;80.70;;;;;;4955805;29;20081;-88
2023/05/20 10:41:29;;;;;;;2.53;1.00;;;19.30;81.40;;;;;;4940030;29;20032;-88
2023/05/20 10:44:05;;;;;;;3.80;1.33;;;19.40;81.30;;;;;;4958330;29;20034;-88
2023/05/20 10:46:32;;;;;;;2.97;0.60;;;19.70;80.50;;;;;;4941606;29;20487;-89
2023/05/20 10:48:58;;;;;;;3.13;0.80;;;19.80;80.80;;;;;;4941362;29;20058;-89
2023/05/20 10:51:24;;;;;;;3.58;1.17;;;20.00;80.10;;;;;;4937038;29;20031;-89
2023/05/20 10:53:54;;;;;;;2.53;0.90;;;19.90;77.90;;;;;;4939411;28;20045;-88
2023/05/20 10:56:22;;;;;;;1.83;0.70;;;19.80;78.20;;;;;;4939100;29;20086;-88
2023/05/20 10:58:51;;;;;;;2.28;0.80;;;19.80;78.30;;;;;;4932034;29;20043;-88
2023/05/20 11:01:18;;;;;;;1.98;0.60;;;19.60;77.90;;;;;;4940968;29;20027;-88
2023/05/20 11:03:48;;;;;;;2.20;0.80;;;19.60;78.80;;;;;;4941270;29;20027;-88
2023/05/20 11:06:15;;;;;;;4.40;1.00;;;19.80;79.00;;;;;;4941315;29;20123;-88
2023/05/20 11:08:41;;;;;;;7.55;1.38;;;19.90;78.20;;;;;;4945522;29;20047;-88
2023/05/20 11:11:07;;;;;;;2.22;0.80;;;20.00;79.00;;;;;;4931993;29;20032;-87
2023/05/20 11:13:33;;;;;;;3.20;0.73;;;20.10;77.50;;;;;;4941490;29;20035;-87
2023/05/20 11:16:00;;;;;;;3.00;0.60;;;20.10;77.20;;;;;;4946895;29;20027;-87
2023/05/20 11:18:31;;;;;;;3.35;0.80;;;20.20;77.60;;;;;;4941060;29;20038;-87
2023/05/20 11:20:57;;;;;;;3.88;0.80;;;20.30;76.10;;;;;;4938178;29;20127;-88
2023/05/20 11:23:36;;;;;;;3.22;0.60;;;20.30;76.30;;;;;;4940692;29;20040;-87
2023/05/20 11:26:02;;;;;;;2.08;0.50;;;20.30;76.30;;;;;;4941261;29;20045;-87
2023/05/20 11:28:29;;;;;;;4.43;0.75;;;20.10;76.10;;;;;;4934746;29;20031;-88
2023/05/20 11:30:55;;;;;;;2.60;0.70;;;20.10;75.80;;;;;;4939016;29;20048;-89
2023/05/20 11:33:25;;;;;;;3.33;0.68;;;20.10;76.50;;;;;;4942026;29;20074;-88
2023/05/20 11:35:52;;;;;;;1.42;0.70;;;20.20;76.50;;;;;;4950696;29;20023;-88
2023/05/20 11:38:19;;;;;;;2.50;0.60;;;20.50;75.90;;;;;;4936055;29;20036;-89
2023/05/20 11:40:49;;;;;;;3.35;0.70;;;20.50;75.60;;;;;;4935126;29;20067;-89
2023/05/20 11:43:15;;;;;;;7.95;1.08;;;20.60;75.40;;;;;;4939098;29;20472;-89
2023/05/20 11:45:45;;;;;;;2.13;0.60;;;20.70;74.30;;;;;;4930557;29;20170;-91
2023/05/20 11:48:11;;;;;;;2.55;0.52;;;20.70;73.00;;;;;;4940766;29;20114;-89
2023/05/20 11:50:44;;;;;;;4.78;0.60;;;20.70;74.60;;;;;;4940236;29;20075;-88
2023/05/20 11:53:14;;;;;;;2.72;0.60;;;21.00;73.70;;;;;;4940440;29;20117;-89
2023/05/20 11:55:52;;;;;;;2.75;0.80;;;21.20;73.10;;;;;;4941255;29;20035;-88
2023/05/20 11:58:25;;;;;;;4.00;0.70;;;21.30;72.60;;;;;;4956677;29;20035;-90
2023/05/20 12:00:51;;;;;;;2.40;0.50;;;21.30;71.30;;;;;;4957581;29;20458;-89
2023/05/20 12:03:17;;;;;;;1.73;0.73;;;21.30;71.90;;;;;;4957020;29;20065;-89
2023/05/20 12:05:43;;;;;;;2.30;0.60;;;21.50;70.80;;;;;;4946567;29;20030;-89
2023/05/20 12:08:16;;;;;;;4.30;0.60;;;21.50;69.90;;;;;;4943391;29;20027;-89
2023/05/20 12:10:43;;;;;;;1.27;0.45;;;21.60;70.40;;;;;;4956838;29;20059;-89
2023/05/20 12:13:10;;;;;;;2.33;0.55;;;21.80;71.00;;;;;;4956922;29;20038;-88
2023/05/20 12:15:45;;;;;;;2.58;0.50;;;21.90;70.50;;;;;;4951488;29;20394;-89
2023/05/20 12:18:10;;;;;;;2.63;0.50;;;22.00;70.50;;;;;;4951097;29;20034;-89
2023/05/20 12:20:36;;;;;;;2.88;0.50;;;22.10;70.30;;;;;;4943334;29;20023;-88
2023/05/20 12:23:02;;;;;;;3.92;0.70;;;22.20;69.80;;;;;;4939939;29;20042;-88
2023/05/20 12:25:28;;;;;;;1.70;0.60;;;22.20;68.70;;;;;;4936998;29;20024;-88
2023/05/20 12:27:54;;;;;;;1.40;0.63;;;22.10;68.70;;;;;;4937459;29;20024;-88
2023/05/20 12:30:21;;;;;;;1.88;0.50;;;22.00;68.60;;;;;;4939123;29;20047;-88
2023/05/20 12:32:49;;;;;;;1.98;0.52;;;21.90;69.20;;;;;;4936816;29;20127;-88
2023/05/20 12:35:15;;;;;;;1.65;0.50;;;21.90;68.40;;;;;;4940057;29;20038;-88
2023/05/20 12:37:42;;;;;;;1.60;0.50;;;21.80;69.00;;;;;;4940122;29;20035;-88
2023/05/20 12:40:10;;;;;;;1.40;0.60;;;21.90;68.40;;;;;;4940315;29;20043;-88
2023/05/20 12:42:39;;;;;;;1.23;0.47;;;22.00;68.60;;;;;;4939495;29;20035;-89
2023/05/20 12:45:06;;;;;;;1.35;0.50;;;22.00;68.50;;;;;;4940069;29;20034;-89
2023/05/20 12:47:32;;;;;;;2.30;0.70;;;22.20;69.10;;;;;;4944682;29;20027;-88
2023/05/20 12:49:59;;;;;;;2.20;0.52;;;22.30;68.00;;;;;;4948150;29;20035;-89
2023/05/20 12:52:25;;;;;;;1.58;0.50;;;22.20;67.50;;;;;;4947209;29;20039;-89